sensor_id;sensor_type;location;lat;lon;timestamp;pressure;altitude;pressure_sealevel;temperature;humidity
61086;BME280;46967;48.876;2.136;2023-06-22T00:01:08;101501.38;;;48.61;13.09
61086;BME280;46967;48.876;2.136;2023-06-22T00:03:34;101502.16;;;48.28;13.39
61086;BME280;46967;48.876;2.136;2023-06-22T00:05:59;101506.38;;;48.04;13.73
61086;BME280;46967;48.876;2.136;2023-06-22T00:08:24;101506.78;;;48.77;13.25
61086;BME280;46967;48.876;2.136;2023-06-22T00:10:50;101502.84;;;48.88;12.96
61086;BME280;46967;48.876;2.136;2023-06-22T00:13:16;101507.75;;;48.96;12.75
61086;BME280;46967;48.876;2.136;2023-06-22T00:15:43;101514.44;;;48.85;12.65
61086;BME280;46967;48.876;2.136;2023-06-22T00:18:10;101500.19;;;48.73;12.95
61086;BME280;46967;48.876;2.136;2023-06-22T00:20:36;101499.09;;;48.74;13.02
61086;BME280;46967;48.876;2.136;2023-06-22T00:23:03;101484.59;;;48.63;13.21
61086;BME280;46967;48.876;2.136;2023-06-22T00:25:34;101490.94;;;48.64;13.13
61086;BME280;46967;48.876;2.136;2023-06-22T00:27:59;101480.25;;;48.02;13.77
61086;BME280;46967;48.876;2.136;2023-06-22T00:30:25;101476.75;;;47.86;13.60
61086;BME280;46967;48.876;2.136;2023-06-22T00:32:50;101467.59;;;48.56;12.85
61086;BME280;46967;48.876;2.136;2023-06-22T00:35:15;101462.50;;;48.73;12.74
61086;BME280;46967;48.876;2.136;2023-06-22T00:37:41;101455.41;;;48.67;12.71
61086;BME280;46967;48.876;2.136;2023-06-22T00:40:08;101462.44;;;48.84;12.61
61086;BME280;46967;48.876;2.136;2023-06-22T00:42:36;101457.66;;;48.94;12.88
61086;BME280;46967;48.876;2.136;2023-06-22T00:45:01;101462.94;;;48.91;12.70
61086;BME280;46967;48.876;2.136;2023-06-22T00:47:27;101459.09;;;48.87;12.51
61086;BME280;46967;48.876;2.136;2023-06-22T00:49:52;101451.72;;;48.77;12.92
61086;BME280;46967;48.876;2.136;2023-06-22T00:52:24;101446.59;;;49.00;12.73
61086;BME280;46967;48.876;2.136;2023-06-22T00:54:56;101453.09;;;49.09;12.31
61086;BME280;46967;48.876;2.136;2023-06-22T00:57:22;101449.81;;;48.77;12.88
61086;BME280;46967;48.876;2.136;2023-06-22T00:59:51;101457.19;;;48.87;13.05
61086;BME280;46967;48.876;2.136;2023-06-22T01:02:16;101451.25;;;48.25;13.34
61086;BME280;46967;48.876;2.136;2023-06-22T01:04:42;101450.41;;;48.69;12.99
61086;BME280;46967;48.876;2.136;2023-06-22T01:07:26;101452.69;;;48.62;13.07
61086;BME280;46967;48.876;2.136;2023-06-22T01:12:40;101449.38;;;48.65;12.87
61086;BME280;46967;48.876;2.136;2023-06-22T01:15:12;101452.41;;;48.64;12.72
61086;BME280;46967;48.876;2.136;2023-06-22T01:17:40;101450.66;;;48.78;13.12
61086;BME280;46967;48.876;2.136;2023-06-22T01:20:09;101437.63;;;48.89;12.68
61086;BME280;46967;48.876;2.136;2023-06-22T01:22:51;101430.28;;;48.45;12.76
61086;BME280;46967;48.876;2.136;2023-06-22T01:25:45;101426.19;;;47.82;13.54
61086;BME280;46967;48.876;2.136;2023-06-22T01:30:40;101420.09;;;47.90;13.64
61086;BME280;46967;48.876;2.136;2023-06-22T01:33:06;101413.19;;;47.98;13.71
61086;BME280;46967;48.876;2.136;2023-06-22T01:35:32;101402.66;;;47.50;13.51
61086;BME280;46967;48.876;2.136;2023-06-22T01:37:58;101399.97;;;47.40;14.10
61086;BME280;46967;48.876;2.136;2023-06-22T01:40:24;101402.38;;;48.17;13.25
61086;BME280;46967;48.876;2.136;2023-06-22T01:42:50;101404.38;;;48.46;12.69
61086;BME280;46967;48.876;2.136;2023-06-22T01:45:17;101406.41;;;48.30;12.74
61086;BME280;46967;48.876;2.136;2023-06-22T01:47:42;101406.81;;;48.52;12.84
61086;BME280;46967;48.876;2.136;2023-06-22T01:50:08;101400.84;;;48.40;12.96
61086;BME280;46967;48.876;2.136;2023-06-22T01:52:34;101403.56;;;48.45;12.97
61086;BME280;46967;48.876;2.136;2023-06-22T01:55:00;101391.38;;;48.56;12.57
61086;BME280;46967;48.876;2.136;2023-06-22T01:57:26;101392.66;;;48.64;12.91
61086;BME280;46967;48.876;2.136;2023-06-22T02:00:00;101388.84;;;48.60;12.56
61086;BME280;46967;48.876;2.136;2023-06-22T02:03:30;101385.00;;;48.61;12.79
61086;BME280;46967;48.876;2.136;2023-06-22T02:05:34;101385.81;;;48.61;12.32
61086;BME280;46967;48.876;2.136;2023-06-22T02:08:07;101381.16;;;48.57;12.34
61086;BME280;46967;48.876;2.136;2023-06-22T02:10:35;101380.41;;;48.51;12.77
61086;BME280;46967;48.876;2.136;2023-06-22T02:13:04;101377.25;;;48.63;12.74
61086;BME280;46967;48.876;2.136;2023-06-22T02:15:30;101376.38;;;48.68;12.78
61086;BME280;46967;48.876;2.136;2023-06-22T02:17:56;101377.22;;;48.34;12.71
61086;BME280;46967;48.876;2.136;2023-06-22T02:20:23;101373.75;;;48.57;12.67
61086;BME280;46967;48.876;2.136;2023-06-22T02:22:49;101373.13;;;48.66;12.72
61086;BME280;46967;48.876;2.136;2023-06-22T02:25:14;101377.22;;;48.68;12.62
61086;BME280;46967;48.876;2.136;2023-06-22T02:27:40;101378.63;;;48.66;12.88
61086;BME280;46967;48.876;2.136;2023-06-22T02:30:07;101381.44;;;48.55;12.62
61086;BME280;46967;48.876;2.136;2023-06-22T02:32:33;101380.41;;;48.51;12.38
61086;BME280;46967;48.876;2.136;2023-06-22T02:34:59;101393.53;;;48.59;12.67
61086;BME280;46967;48.876;2.136;2023-06-22T02:37:24;101393.66;;;48.78;12.78
61086;BME280;46967;48.876;2.136;2023-06-22T02:39:50;101385.69;;;48.42;12.91
61086;BME280;46967;48.876;2.136;2023-06-22T02:42:15;101371.06;;;48.47;12.86
61086;BME280;46967;48.876;2.136;2023-06-22T02:44:45;101367.84;;;48.35;12.82
61086;BME280;46967;48.876;2.136;2023-06-22T02:47:10;101374.91;;;48.12;12.69
61086;BME280;46967;48.876;2.136;2023-06-22T02:49:36;101377.84;;;48.25;12.54
61086;BME280;46967;48.876;2.136;2023-06-22T02:52:01;101382.16;;;47.92;13.23
61086;BME280;46967;48.876;2.136;2023-06-22T02:54:27;101381.97;;;48.23;12.93
61086;BME280;46967;48.876;2.136;2023-06-22T02:56:52;101389.66;;;48.26;12.68
61086;BME280;46967;48.876;2.136;2023-06-22T02:59:17;101390.50;;;48.21;12.84
61086;BME280;46967;48.876;2.136;2023-06-22T03:01:46;101392.34;;;47.86;13.08
61086;BME280;46967;48.876;2.136;2023-06-22T03:04:12;101384.06;;;47.92;13.45
61086;BME280;46967;48.876;2.136;2023-06-22T03:06:37;101376.88;;;48.01;12.95
61086;BME280;46967;48.876;2.136;2023-06-22T03:09:07;101380.22;;;47.93;13.22
61086;BME280;46967;48.876;2.136;2023-06-22T03:11:35;101371.19;;;47.87;13.45
61086;BME280;46967;48.876;2.136;2023-06-22T03:14:01;101365.84;;;48.11;12.76
61086;BME280;46967;48.876;2.136;2023-06-22T03:16:27;101359.56;;;48.05;12.81
61086;BME280;46967;48.876;2.136;2023-06-22T03:18:53;101353.22;;;48.00;12.90
61086;BME280;46967;48.876;2.136;2023-06-22T03:21:28;101348.41;;;47.81;13.39
61086;BME280;46967;48.876;2.136;2023-06-22T03:23:54;101354.47;;;47.78;13.37
61086;BME280;46967;48.876;2.136;2023-06-22T03:26:19;101354.03;;;47.50;13.53
61086;BME280;46967;48.876;2.136;2023-06-22T03:28:45;101351.22;;;47.71;13.14
61086;BME280;46967;48.876;2.136;2023-06-22T03:31:11;101354.09;;;47.95;12.89
61086;BME280;46967;48.876;2.136;2023-06-22T03:33:36;101355.38;;;48.13;12.75
61086;BME280;46967;48.876;2.136;2023-06-22T03:36:02;101349.03;;;48.18;12.67
61086;BME280;46967;48.876;2.136;2023-06-22T03:38:27;101340.03;;;48.02;13.14
61086;BME280;46967;48.876;2.136;2023-06-22T03:40:52;101352.63;;;48.13;13.10
61086;BME280;46967;48.876;2.136;2023-06-22T03:43:18;101333.63;;;47.62;13.17
61086;BME280;46967;48.876;2.136;2023-06-22T03:45:43;101333.88;;;47.76;13.09
61086;BME280;46967;48.876;2.136;2023-06-22T03:48:11;101337.38;;;47.86;13.30
61086;BME280;46967;48.876;2.136;2023-06-22T03:50:36;101335.47;;;47.82;12.96
61086;BME280;46967;48.876;2.136;2023-06-22T03:53:01;101340.53;;;48.09;13.16
61086;BME280;46967;48.876;2.136;2023-06-22T03:55:27;101336.94;;;48.14;13.08
61086;BME280;46967;48.876;2.136;2023-06-22T03:57:53;101338.59;;;48.15;12.76
61086;BME280;46967;48.876;2.136;2023-06-22T04:00:22;101338.75;;;47.89;13.28
61086;BME280;46967;48.876;2.136;2023-06-22T04:02:47;101337.00;;;47.98;12.64
61086;BME280;46967;48.876;2.136;2023-06-22T04:05:12;101341.63;;;48.13;13.04
61086;BME280;46967;48.876;2.136;2023-06-22T04:07:39;101340.31;;;48.00;13.06
61086;BME280;46967;48.876;2.136;2023-06-22T04:10:05;101345.09;;;47.84;12.89
61086;BME280;46967;48.876;2.136;2023-06-22T04:12:30;101346.59;;;48.11;13.02
61086;BME280;46967;48.876;2.136;2023-06-22T04:14:56;101340.19;;;48.21;12.91
61086;BME280;46967;48.876;2.136;2023-06-22T04:17:21;101347.38;;;48.17;12.79
61086;BME280;46967;48.876;2.136;2023-06-22T04:19:49;101338.88;;;48.13;13.01
61086;BME280;46967;48.876;2.136;2023-06-22T04:22:15;101340.84;;;48.07;12.67
61086;BME280;46967;48.876;2.136;2023-06-22T04:24:40;101332.06;;;48.00;12.88
61086;BME280;46967;48.876;2.136;2023-06-22T04:27:05;101325.31;;;47.82;13.29
61086;BME280;46967;48.876;2.136;2023-06-22T04:29:31;101335.03;;;48.14;12.99
61086;BME280;46967;48.876;2.136;2023-06-22T04:31:57;101331.38;;;48.24;12.55
61086;BME280;46967;48.876;2.136;2023-06-22T04:34:28;101333.72;;;48.36;12.67
61086;BME280;46967;48.876;2.136;2023-06-22T04:36:54;101336.47;;;48.36;12.55
61086;BME280;46967;48.876;2.136;2023-06-22T04:39:20;101337.84;;;48.38;12.49
61086;BME280;46967;48.876;2.136;2023-06-22T04:41:45;101339.22;;;48.36;12.83
61086;BME280;46967;48.876;2.136;2023-06-22T04:44:15;101344.13;;;48.44;12.63
61086;BME280;46967;48.876;2.136;2023-06-22T04:46:51;101342.19;;;48.50;12.98
61086;BME280;46967;48.876;2.136;2023-06-22T04:49:20;101333.97;;;48.39;13.25
61086;BME280;46967;48.876;2.136;2023-06-22T04:51:46;101341.09;;;48.46;12.92
61086;BME280;46967;48.876;2.136;2023-06-22T04:54:11;101336.84;;;48.58;13.11
61086;BME280;46967;48.876;2.136;2023-06-22T04:56:37;101338.88;;;48.77;13.08
61086;BME280;46967;48.876;2.136;2023-06-22T04:59:03;101337.16;;;48.86;13.00
61086;BME280;46967;48.876;2.136;2023-06-22T05:01:29;101338.53;;;48.89;12.82
61086;BME280;46967;48.876;2.136;2023-06-22T05:03:56;101337.16;;;48.86;12.78
61086;BME280;46967;48.876;2.136;2023-06-22T05:06:22;101335.31;;;48.76;13.35
61086;BME280;46967;48.876;2.136;2023-06-22T05:08:53;101336.63;;;48.84;13.04
61086;BME280;46967;48.876;2.136;2023-06-22T05:11:23;101338.06;;;48.76;13.09
61086;BME280;46967;48.876;2.136;2023-06-22T05:13:49;101333.50;;;48.61;13.41
61086;BME280;46967;48.876;2.136;2023-06-22T05:16:14;101332.31;;;48.43;13.33
61086;BME280;46967;48.876;2.136;2023-06-22T05:18:39;101334.97;;;48.54;13.65
61086;BME280;46967;48.876;2.136;2023-06-22T05:21:06;101334.59;;;48.31;13.60
61086;BME280;46967;48.876;2.136;2023-06-22T05:23:32;101334.16;;;48.53;13.69
61086;BME280;46967;48.876;2.136;2023-06-22T05:25:57;101338.16;;;48.66;13.53
61086;BME280;46967;48.876;2.136;2023-06-22T05:28:23;101336.97;;;48.77;13.32
61086;BME280;46967;48.876;2.136;2023-06-22T05:30:49;101328.38;;;48.84;13.76
61086;BME280;46967;48.876;2.136;2023-06-22T05:33:14;101331.72;;;48.76;13.93
61086;BME280;46967;48.876;2.136;2023-06-22T05:35:40;101329.47;;;48.83;13.42
61086;BME280;46967;48.876;2.136;2023-06-22T05:38:05;101323.28;;;48.67;13.98
61086;BME280;46967;48.876;2.136;2023-06-22T05:40:30;101329.72;;;48.57;14.44
61086;BME280;46967;48.876;2.136;2023-06-22T05:42:56;101332.03;;;48.45;14.47
61086;BME280;46967;48.876;2.136;2023-06-22T05:45:21;101329.47;;;48.54;14.36
61086;BME280;46967;48.876;2.136;2023-06-22T05:47:46;101334.34;;;48.62;14.01
61086;BME280;46967;48.876;2.136;2023-06-22T05:50:11;101335.06;;;48.78;14.55
61086;BME280;46967;48.876;2.136;2023-06-22T05:52:37;101328.41;;;48.79;13.87
61086;BME280;46967;48.876;2.136;2023-06-22T05:55:03;101327.69;;;48.68;14.19
61086;BME280;46967;48.876;2.136;2023-06-22T05:57:28;101333.50;;;48.61;14.14
61086;BME280;46967;48.876;2.136;2023-06-22T05:59:53;101333.09;;;48.78;14.27
61086;BME280;46967;48.876;2.136;2023-06-22T06:02:19;101328.94;;;48.52;14.72
61086;BME280;46967;48.876;2.136;2023-06-22T06:04:48;101327.06;;;48.47;14.78
61086;BME280;46967;48.876;2.136;2023-06-22T06:07:16;101324.44;;;48.61;14.63
61086;BME280;46967;48.876;2.136;2023-06-22T06:09:41;101323.34;;;48.28;15.12
61086;BME280;46967;48.876;2.136;2023-06-22T06:12:07;101323.16;;;48.53;14.76
61086;BME280;46967;48.876;2.136;2023-06-22T06:14:32;101326.63;;;48.64;14.90
61086;BME280;46967;48.876;2.136;2023-06-22T06:16:58;101321.84;;;48.75;14.80
61086;BME280;46967;48.876;2.136;2023-06-22T06:19:23;101316.72;;;48.92;14.76
61086;BME280;46967;48.876;2.136;2023-06-22T06:21:48;101324.84;;;49.03;15.15
61086;BME280;46967;48.876;2.136;2023-06-22T06:24:14;101320.91;;;49.09;14.62
61086;BME280;46967;48.876;2.136;2023-06-22T06:26:40;101321.44;;;48.87;15.13
61086;BME280;46967;48.876;2.136;2023-06-22T06:29:05;101332.56;;;48.47;15.02
61086;BME280;46967;48.876;2.136;2023-06-22T06:31:30;101336.94;;;48.14;15.46
61086;BME280;46967;48.876;2.136;2023-06-22T06:33:56;101330.97;;;48.41;15.00
61086;BME280;46967;48.876;2.136;2023-06-22T06:36:21;101339.97;;;48.81;15.33
61086;BME280;46967;48.876;2.136;2023-06-22T06:38:47;101342.31;;;48.93;15.26
61086;BME280;46967;48.876;2.136;2023-06-22T06:41:15;101347.44;;;49.05;14.64
61086;BME280;46967;48.876;2.136;2023-06-22T06:43:41;101357.38;;;49.01;14.54
61086;BME280;46967;48.876;2.136;2023-06-22T06:46:10;101351.00;;;49.05;15.00
61086;BME280;46967;48.876;2.136;2023-06-22T06:48:35;101347.13;;;49.06;14.64
61086;BME280;46967;48.876;2.136;2023-06-22T06:51:01;101343.97;;;48.94;14.96
61086;BME280;46967;48.876;2.136;2023-06-22T06:53:26;101330.88;;;48.81;14.85
61086;BME280;46967;48.876;2.136;2023-06-22T06:55:52;101332.94;;;48.94;14.97
61086;BME280;46967;48.876;2.136;2023-06-22T06:58:17;101339.09;;;49.10;14.69
61086;BME280;46967;48.876;2.136;2023-06-22T07:00:42;101318.84;;;48.42;15.06
61086;BME280;46967;48.876;2.136;2023-06-22T07:03:09;101324.03;;;48.09;15.70
61086;BME280;46967;48.876;2.136;2023-06-22T07:05:34;101323.25;;;47.98;15.91
61086;BME280;46967;48.876;2.136;2023-06-22T07:08:00;101318.28;;;48.45;14.90
61086;BME280;46967;48.876;2.136;2023-06-22T07:10:26;101314.66;;;48.15;15.34
61086;BME280;46967;48.876;2.136;2023-06-22T07:12:52;101317.28;;;48.31;15.32
61086;BME280;46967;48.876;2.136;2023-06-22T07:15:17;101321.72;;;47.32;16.40
61086;BME280;46967;48.876;2.136;2023-06-22T07:17:42;101325.81;;;47.34;16.04
61086;BME280;46967;48.876;2.136;2023-06-22T07:20:09;101324.78;;;47.05;16.26
61086;BME280;46967;48.876;2.136;2023-06-22T07:22:36;101336.28;;;47.32;16.16
61086;BME280;46967;48.876;2.136;2023-06-22T07:25:01;101334.56;;;47.47;16.21
61086;BME280;46967;48.876;2.136;2023-06-22T07:27:30;101337.09;;;47.33;16.04
61086;BME280;46967;48.876;2.136;2023-06-22T07:30:01;101335.16;;;47.28;15.88
61086;BME280;46967;48.876;2.136;2023-06-22T07:32:26;101332.66;;;47.42;15.91
61086;BME280;46967;48.876;2.136;2023-06-22T07:34:53;101328.84;;;47.33;16.27
61086;BME280;46967;48.876;2.136;2023-06-22T07:37:18;101329.72;;;47.13;16.33
61086;BME280;46967;48.876;2.136;2023-06-22T07:39:44;101328.06;;;47.12;16.38
61086;BME280;46967;48.876;2.136;2023-06-22T07:42:09;101332.78;;;46.86;16.87
61086;BME280;46967;48.876;2.136;2023-06-22T07:44:35;101329.56;;;47.59;16.36
61086;BME280;46967;48.876;2.136;2023-06-22T07:47:00;101337.22;;;46.66;17.09
61086;BME280;46967;48.876;2.136;2023-06-22T07:49:25;101325.09;;;46.98;16.43
61086;BME280;46967;48.876;2.136;2023-06-22T07:51:51;101336.25;;;47.22;16.35
61086;BME280;46967;48.876;2.136;2023-06-22T07:54:16;101333.31;;;47.08;16.25
61086;BME280;46967;48.876;2.136;2023-06-22T07:56:42;101331.28;;;47.45;16.24
61086;BME280;46967;48.876;2.136;2023-06-22T07:59:08;101334.81;;;47.56;15.91
61086;BME280;46967;48.876;2.136;2023-06-22T08:01:33;101341.03;;;46.96;16.72
61086;BME280;46967;48.876;2.136;2023-06-22T08:03:58;101339.38;;;46.90;16.78
61086;BME280;46967;48.876;2.136;2023-06-22T08:06:24;101338.31;;;46.24;17.19
61086;BME280;46967;48.876;2.136;2023-06-22T08:08:50;101335.00;;;46.27;17.11
61086;BME280;46967;48.876;2.136;2023-06-22T08:11:19;101340.25;;;44.32;19.08
61086;BME280;46967;48.876;2.136;2023-06-22T08:13:44;101341.94;;;45.61;17.84
61086;BME280;46967;48.876;2.136;2023-06-22T08:16:09;101340.47;;;46.42;17.26
61086;BME280;46967;48.876;2.136;2023-06-22T08:18:35;101352.84;;;46.40;17.04
61086;BME280;46967;48.876;2.136;2023-06-22T08:21:00;101340.22;;;46.75;16.66
61086;BME280;46967;48.876;2.136;2023-06-22T08:23:26;101350.97;;;44.71;18.66
61086;BME280;46967;48.876;2.136;2023-06-22T08:25:51;101347.19;;;44.18;19.48
61086;BME280;46967;48.876;2.136;2023-06-22T08:28:16;101352.06;;;45.08;18.37
61086;BME280;46967;48.876;2.136;2023-06-22T08:30:42;101357.09;;;45.21;18.47
61086;BME280;46967;48.876;2.136;2023-06-22T08:33:07;101349.00;;;46.51;16.69
61086;BME280;46967;48.876;2.136;2023-06-22T08:35:32;101349.25;;;46.80;16.70
61086;BME280;46967;48.876;2.136;2023-06-22T08:37:58;101352.19;;;45.97;17.76
61086;BME280;46967;48.876;2.136;2023-06-22T08:40:25;101357.06;;;45.74;18.00
61086;BME280;46967;48.876;2.136;2023-06-22T08:42:50;101353.13;;;46.38;16.95
61086;BME280;46967;48.876;2.136;2023-06-22T08:45:16;101348.44;;;46.80;16.97
61086;BME280;46967;48.876;2.136;2023-06-22T08:47:42;101349.28;;;46.65;17.10
61086;BME280;46967;48.876;2.136;2023-06-22T08:50:08;101352.28;;;46.33;17.10
61086;BME280;46967;48.876;2.136;2023-06-22T08:52:34;101357.22;;;45.47;18.46
61086;BME280;46967;48.876;2.136;2023-06-22T08:55:00;101351.19;;;46.39;17.23
61086;BME280;46967;48.876;2.136;2023-06-22T08:57:26;101353.28;;;45.80;17.84
61086;BME280;46967;48.876;2.136;2023-06-22T08:59:52;101359.19;;;44.39;19.36
61086;BME280;46967;48.876;2.136;2023-06-22T09:02:18;101354.22;;;46.73;16.66
61086;BME280;46967;48.876;2.136;2023-06-22T09:04:45;101345.97;;;46.27;17.57
61086;BME280;46967;48.876;2.136;2023-06-22T09:07:10;101353.09;;;46.23;17.14
61086;BME280;46967;48.876;2.136;2023-06-22T09:09:37;101348.06;;;45.79;17.61
61086;BME280;46967;48.876;2.136;2023-06-22T09:12:02;101357.00;;;45.06;18.24
61086;BME280;46967;48.876;2.136;2023-06-22T09:14:28;101352.53;;;43.80;19.72
61086;BME280;46967;48.876;2.136;2023-06-22T09:16:53;101353.25;;;45.22;18.62
61086;BME280;46967;48.876;2.136;2023-06-22T09:19:18;101361.53;;;44.30;19.07
61086;BME280;46967;48.876;2.136;2023-06-22T09:21:44;101358.38;;;45.61;17.94
61086;BME280;46967;48.876;2.136;2023-06-22T09:24:09;101351.44;;;46.27;17.19
61086;BME280;46967;48.876;2.136;2023-06-22T09:26:34;101363.28;;;46.43;16.96
61086;BME280;46967;48.876;2.136;2023-06-22T09:29:00;101358.59;;;46.95;16.49
61086;BME280;46967;48.876;2.136;2023-06-22T09:31:25;101356.03;;;45.90;17.27
61086;BME280;46967;48.876;2.136;2023-06-22T09:33:54;101356.13;;;46.26;16.67
61086;BME280;46967;48.876;2.136;2023-06-22T09:36:20;101359.41;;;46.80;16.51
61086;BME280;46967;48.876;2.136;2023-06-22T09:38:47;101361.69;;;47.64;15.91
61086;BME280;46967;48.876;2.136;2023-06-22T09:41:12;101364.22;;;47.50;16.05
61086;BME280;46967;48.876;2.136;2023-06-22T09:43:37;101373.56;;;45.84;17.32
61086;BME280;46967;48.876;2.136;2023-06-22T09:46:03;101369.56;;;46.95;16.04
61086;BME280;46967;48.876;2.136;2023-06-22T09:48:29;101384.63;;;45.04;17.99
61086;BME280;46967;48.876;2.136;2023-06-22T09:50:55;101384.63;;;47.08;16.26
61086;BME280;46967;48.876;2.136;2023-06-22T09:53:20;101385.47;;;46.77;16.31
61086;BME280;46967;48.876;2.136;2023-06-22T09:55:46;101396.16;;;46.33;17.19
61086;BME280;46967;48.876;2.136;2023-06-22T09:58:12;101396.31;;;45.90;17.26
61086;BME280;46967;48.876;2.136;2023-06-22T10:00:37;101391.19;;;45.03;18.25
61086;BME280;46967;48.876;2.136;2023-06-22T10:03:02;101388.75;;;46.18;17.46
61086;BME280;46967;48.876;2.136;2023-06-22T10:05:28;101393.69;;;46.26;17.08
61086;BME280;46967;48.876;2.136;2023-06-22T10:07:53;101395.97;;;45.76;17.51
61086;BME280;46967;48.876;2.136;2023-06-22T10:10:18;101395.94;;;46.75;16.85
61086;BME280;46967;48.876;2.136;2023-06-22T10:12:46;101403.50;;;45.43;17.98
61086;BME280;46967;48.876;2.136;2023-06-22T10:15:13;101400.84;;;46.83;16.80
61086;BME280;46967;48.876;2.136;2023-06-22T10:17:38;101387.91;;;46.17;17.52
61086;BME280;46967;48.876;2.136;2023-06-22T10:20:08;101391.44;;;46.13;16.93
61086;BME280;46967;48.876;2.136;2023-06-22T10:22:46;101390.13;;;46.41;16.73
61086;BME280;46967;48.876;2.136;2023-06-22T10:25:13;101391.28;;;46.81;17.06
61086;BME280;46967;48.876;2.136;2023-06-22T10:27:39;101395.63;;;46.36;17.59
61086;BME280;46967;48.876;2.136;2023-06-22T10:30:11;101398.41;;;46.92;17.04
61086;BME280;46967;48.876;2.136;2023-06-22T10:32:41;101397.69;;;48.57;15.69
61086;BME280;46967;48.876;2.136;2023-06-22T10:35:08;101401.09;;;47.18;16.90
61086;BME280;46967;48.876;2.136;2023-06-22T10:37:33;101411.78;;;48.85;15.75
61086;BME280;46967;48.876;2.136;2023-06-22T10:39:59;101423.56;;;49.20;15.14
61086;BME280;46967;48.876;2.136;2023-06-22T10:42:24;101415.16;;;48.42;15.37
61086;BME280;46967;48.876;2.136;2023-06-22T10:44:49;101423.63;;;49.09;15.26
61086;BME280;46967;48.876;2.136;2023-06-22T10:47:15;101426.25;;;47.71;16.67
61086;BME280;46967;48.876;2.136;2023-06-22T10:49:40;101432.44;;;47.98;16.05
61086;BME280;46967;48.876;2.136;2023-06-22T10:52:07;101425.69;;;47.75;16.25
61086;BME280;46967;48.876;2.136;2023-06-22T10:54:33;101433.75;;;48.55;15.88
61086;BME280;46967;48.876;2.136;2023-06-22T10:56:59;101426.03;;;48.57;15.74
61086;BME280;46967;48.876;2.136;2023-06-22T10:59:25;101431.38;;;48.43;15.94
61086;BME280;46967;48.876;2.136;2023-06-22T11:01:51;101443.19;;;49.61;14.77
61086;BME280;46967;48.876;2.136;2023-06-22T11:04:17;101446.31;;;50.17;14.56
61086;BME280;46967;48.876;2.136;2023-06-22T11:06:43;101446.56;;;50.59;14.75
61086;BME280;46967;48.876;2.136;2023-06-22T11:09:08;101441.47;;;49.90;14.85
61086;BME280;46967;48.876;2.136;2023-06-22T11:11:34;101439.84;;;50.46;14.38
61086;BME280;46967;48.876;2.136;2023-06-22T11:13:59;101451.09;;;50.49;14.33
61086;BME280;46967;48.876;2.136;2023-06-22T11:16:24;101446.97;;;48.53;15.53
61086;BME280;46967;48.876;2.136;2023-06-22T11:18:50;101443.81;;;48.31;15.06
61086;BME280;46967;48.876;2.136;2023-06-22T11:21:15;101451.72;;;49.11;15.18
61086;BME280;46967;48.876;2.136;2023-06-22T11:23:42;101443.75;;;48.41;15.33
61086;BME280;46967;48.876;2.136;2023-06-22T11:26:07;101448.41;;;49.63;14.88
61086;BME280;46967;48.876;2.136;2023-06-22T11:28:33;101445.06;;;50.47;14.11
61086;BME280;46967;48.876;2.136;2023-06-22T11:30:58;101449.41;;;49.48;15.16
61086;BME280;46967;48.876;2.136;2023-06-22T11:33:24;101449.09;;;47.51;15.99
61086;BME280;46967;48.876;2.136;2023-06-22T11:35:49;101450.00;;;47.16;16.32
61086;BME280;46967;48.876;2.136;2023-06-22T11:38:15;101462.06;;;46.69;17.21
61086;BME280;46967;48.876;2.136;2023-06-22T11:40:40;101456.41;;;47.92;16.26
61086;BME280;46967;48.876;2.136;2023-06-22T11:43:05;101454.41;;;47.02;16.33
61086;BME280;46967;48.876;2.136;2023-06-22T11:45:31;101455.22;;;47.07;16.35
61086;BME280;46967;48.876;2.136;2023-06-22T11:47:56;101454.66;;;48.12;16.14
61086;BME280;46967;48.876;2.136;2023-06-22T11:50:22;101449.03;;;48.72;15.72
61086;BME280;46967;48.876;2.136;2023-06-22T11:52:47;101448.34;;;49.20;14.53
61086;BME280;46967;48.876;2.136;2023-06-22T11:55:12;101444.34;;;50.23;13.77
61086;BME280;46967;48.876;2.136;2023-06-22T11:57:52;101447.81;;;50.09;14.11
61086;BME280;46967;48.876;2.136;2023-06-22T12:00:18;101452.28;;;49.08;15.11
61086;BME280;46967;48.876;2.136;2023-06-22T12:02:44;101452.59;;;49.60;14.42
61086;BME280;46967;48.876;2.136;2023-06-22T12:05:12;101455.88;;;50.44;13.77
61086;BME280;46967;48.876;2.136;2023-06-22T12:07:37;101455.50;;;49.45;14.88
61086;BME280;46967;48.876;2.136;2023-06-22T12:10:03;101453.69;;;47.66;16.04
61086;BME280;46967;48.876;2.136;2023-06-22T12:12:29;101464.72;;;46.27;17.18
61086;BME280;46967;48.876;2.136;2023-06-22T12:14:54;101455.19;;;47.28;16.48
61086;BME280;46967;48.876;2.136;2023-06-22T12:17:19;101451.09;;;48.11;15.14
61086;BME280;46967;48.876;2.136;2023-06-22T12:19:45;101453.38;;;47.94;15.33
61086;BME280;46967;48.876;2.136;2023-06-22T12:22:10;101458.19;;;48.62;15.08
61086;BME280;46967;48.876;2.136;2023-06-22T12:24:35;101462.78;;;49.36;14.62
61086;BME280;46967;48.876;2.136;2023-06-22T12:27:00;101472.53;;;48.59;15.03
61086;BME280;46967;48.876;2.136;2023-06-22T12:29:28;101477.41;;;47.47;15.83
61086;BME280;46967;48.876;2.136;2023-06-22T12:31:53;101481.13;;;47.92;15.67
61086;BME280;46967;48.876;2.136;2023-06-22T12:34:19;101476.84;;;48.25;15.49
61086;BME280;46967;48.876;2.136;2023-06-22T12:36:44;101477.22;;;48.09;15.58
61086;BME280;46967;48.876;2.136;2023-06-22T12:39:09;101484.88;;;49.30;14.58
61086;BME280;46967;48.876;2.136;2023-06-22T12:41:35;101482.13;;;46.95;16.17
61086;BME280;46967;48.876;2.136;2023-06-22T12:44:00;101489.22;;;46.80;16.57
61086;BME280;46967;48.876;2.136;2023-06-22T12:46:25;101490.34;;;48.22;14.81
61086;BME280;46967;48.876;2.136;2023-06-22T12:48:51;101496.81;;;49.21;14.12
61086;BME280;46967;48.876;2.136;2023-06-22T12:51:22;101493.72;;;49.27;14.33